Time;durP1;ratioP1;P1;durP2;ratioP2;P2;SDS_P1;SDS_P2;PMS_P1;PMS_P2;Temp;Humidity;BMP_temperature;BMP_pressure;BME280_temperature;BME280_humidity;BME280_pressure;Samples;Min_cycle;Max_cycle;Signal;HPM_P1;HPM_P2
2022/10/07 02:43:44;;;;;;;22.27;11.97;;;;;;;9.02;91.99;100536.00;1800776;79;23410;-46
2022/10/07 02:46:19;;;;;;;20.50;11.90;;;;;;;8.98;91.92;100530.88;1759562;80;20992;-43
2022/10/07 02:48:58;;;;;;;20.60;11.90;;;;;;;8.97;91.84;100530.02;1761783;81;21515;-46
2022/10/07 02:51:32;;;;;;;20.02;11.28;;;;;;;8.97;91.72;100533.96;1761926;81;20975;-51
2022/10/07 02:54:03;;;;;;;24.50;12.03;;;;;;;8.94;91.49;100531.87;1761660;81;20995;-49
2022/10/07 02:56:35;;;;;;;24.95;12.07;;;;;;;8.93;91.67;100536.70;1761784;80;20963;-46
2022/10/07 02:59:05;;;;;;;19.40;11.00;;;;;;;8.91;91.74;100533.27;1761822;80;21026;-49
2022/10/07 03:01:35;;;;;;;21.27;11.53;;;;;;;8.91;91.80;100530.64;1761731;80;20940;-46
2022/10/07 03:04:01;;;;;;;27.87;11.28;;;;;;;8.90;91.22;100532.88;1761790;81;21035;-49
2022/10/07 03:06:28;;;;;;;26.73;12.55;;;;;;;8.89;91.40;100526.75;1761766;81;20995;-46
2022/10/07 03:08:56;;;;;;;26.62;12.05;;;;;;;8.88;91.45;100524.16;1761881;81;21434;-44
2022/10/07 03:11:23;;;;;;;20.02;11.45;;;;;;;8.88;91.56;100530.29;1761717;80;20991;-48
2022/10/07 03:13:49;;;;;;;20.55;11.25;;;;;;;8.88;91.26;100526.78;1762081;80;20995;-51
2022/10/07 03:16:15;;;;;;;17.90;11.88;;;;;;;8.88;91.16;100526.78;1761791;80;21187;-46
2022/10/07 03:18:41;;;;;;;20.97;11.43;;;;;;;8.88;91.43;100524.16;1761788;81;21457;-50
2022/10/07 03:21:07;;;;;;;17.82;11.25;;;;;;;8.86;91.38;100525.97;1761759;81;20987;-45
2022/10/07 03:23:33;;;;;;;19.67;11.70;;;;;;;8.84;91.13;100522.95;1761721;81;20983;-46
2022/10/07 03:25:59;;;;;;;21.87;11.65;;;;;;;8.82;91.42;100521.27;1761695;80;20967;-45
2022/10/07 03:28:28;;;;;;;23.12;11.50;;;;;;;8.81;91.77;100515.17;1761733;81;21051;-51
2022/10/07 03:30:58;;;;;;;17.67;10.45;;;;;;;8.79;91.69;100520.91;1761789;81;21026;-47
2022/10/07 03:33:24;;;;;;;24.30;11.30;;;;;;;8.80;91.53;100515.20;1760215;81;20991;-45
2022/10/07 03:35:50;;;;;;;21.90;11.38;;;;;;;8.78;91.65;100515.24;1761893;81;21425;-47
2022/10/07 03:38:16;;;;;;;19.32;11.12;;;;;;;8.77;91.66;100509.61;1761684;81;20991;-54
2022/10/07 03:40:44;;;;;;;24.45;12.33;;;;;;;8.79;91.85;100515.66;1761749;81;21006;-46
2022/10/07 03:43:09;;;;;;;21.82;11.03;;;;;;;8.77;91.65;100514.00;1750576;81;21043;-47
2022/10/07 03:45:43;;;;;;;20.88;12.80;;;;;;;8.74;91.95;100504.91;1748683;81;21608;-49
2022/10/07 03:48:09;;;;;;;18.52;11.25;;;;;;;8.73;91.87;100507.98;1748759;81;21003;-53
2022/10/07 03:50:36;;;;;;;19.77;11.70;;;;;;;8.70;91.65;100510.69;1748599;81;20968;-50
2022/10/07 03:53:03;;;;;;;29.82;11.55;;;;;;;8.70;91.85;100512.45;1748658;81;21473;-49
2022/10/07 03:55:29;;;;;;;30.10;11.70;;;;;;;8.67;91.83;100502.04;1748249;81;21023;-50
2022/10/07 03:57:56;;;;;;;17.80;11.30;;;;;;;8.68;91.55;100505.05;1748127;81;20968;-46
2022/10/07 04:00:25;;;;;;;19.25;11.57;;;;;;;8.66;91.82;100506.44;1748235;81;21520;-48
2022/10/07 04:02:51;;;;;;;23.57;12.10;;;;;;;8.65;92.03;100508.64;1748076;81;21034;-47
2022/10/07 04:05:19;;;;;;;25.27;11.12;;;;;;;8.63;91.56;100504.73;1748079;82;21097;-43
2022/10/07 04:07:47;;;;;;;24.27;12.65;;;;;;;8.65;91.51;100504.70;1748098;81;20984;-48
2022/10/07 04:10:15;;;;;;;22.60;12.75;;;;;;;8.62;91.50;100503.04;1748129;82;21038;-51
2022/10/07 04:12:42;;;;;;;18.48;11.78;;;;;;;8.62;91.43;100503.47;1748110;81;21042;-45
2022/10/07 04:15:12;;;;;;;21.05;12.23;;;;;;;8.60;91.14;100501.34;1748312;81;21500;-51
2022/10/07 04:17:43;;;;;;;22.80;11.97;;;;;;;8.57;91.16;100500.98;1748047;81;21577;-47
2022/10/07 04:20:10;;;;;;;17.50;11.88;;;;;;;8.56;90.89;100497.09;1748049;81;21062;-52
2022/10/07 04:22:36;;;;;;;22.50;12.03;;;;;;;8.49;90.85;100492.45;1748168;81;20996;-48
2022/10/07 04:27:57;;;;;;;25.90;12.47;;;;;;;8.46;91.05;100493.88;1748193;82;21014;-48
2022/10/07 04:30:25;;;;;;;28.80;13.40;;;;;;;8.43;91.10;100487.40;1747951;81;20976;-51
2022/10/07 04:32:52;;;;;;;23.15;12.93;;;;;;;8.41;91.14;100486.09;1748076;82;21627;-48
2022/10/07 04:35:22;;;;;;;24.55;13.43;;;;;;;8.39;91.43;100484.42;1748126;81;20987;-44
2022/10/07 04:37:49;;;;;;;31.93;14.05;;;;;;;8.39;91.13;100489.20;1748121;81;21018;-49
2022/10/07 04:40:16;;;;;;;26.00;14.50;;;;;;;8.39;91.12;100482.66;1748270;81;21031;-50
2022/10/07 04:45:26;;;;;;;25.15;12.73;;;;;;;8.37;91.10;100476.59;1748106;81;20967;-50
2022/10/07 04:47:51;;;;;;;22.00;12.35;;;;;;;8.35;91.15;100477.52;1748069;81;21000;-53
2022/10/07 04:50:17;;;;;;;24.12;12.05;;;;;;;8.36;90.90;100479.26;1748097;81;21004;-44
2022/10/07 04:52:43;;;;;;;26.05;13.53;;;;;;;8.35;91.06;100477.52;1748119;81;20996;-48
2022/10/07 04:55:15;;;;;;;25.88;13.43;;;;;;;8.33;91.25;100474.97;1748179;81;20991;-49
2022/10/07 04:57:37;;;;;;;27.05;13.22;;;;;;;8.35;91.13;100477.09;1747162;81;21484;-45
2022/10/07 05:00:05;;;;;;;27.60;13.30;;;;;;;8.36;91.21;100477.48;1748155;81;20989;-49
2022/10/07 05:02:31;;;;;;;29.50;14.38;;;;;;;8.36;91.60;100472.24;1748018;81;21023;-46
2022/10/07 05:04:57;;;;;;;25.57;13.10;;;;;;;8.35;91.83;100469.23;1748036;81;21028;-45
2022/10/07 05:07:22;;;;;;;25.40;13.38;;;;;;;8.36;91.72;100468.31;1747497;81;21043;-48
2022/10/07 05:09:48;;;;;;;27.22;13.58;;;;;;;8.38;91.48;100465.66;1746892;81;21039;-45
2022/10/07 05:12:16;;;;;;;36.45;13.50;;;;;;;8.38;91.48;100465.66;1748156;81;21043;-46
2022/10/07 05:14:43;;;;;;;31.80;13.72;;;;;;;8.39;91.50;100470.86;1748011;81;20984;-49
2022/10/07 05:17:09;;;;;;;27.10;13.90;;;;;;;8.39;91.70;100469.55;1748180;81;21160;-43
2022/10/07 05:19:35;;;;;;;29.92;13.93;;;;;;;8.40;91.81;100469.97;1748055;81;21027;-50
2022/10/07 05:22:01;;;;;;;27.27;13.38;;;;;;;8.42;91.70;100469.51;1748062;81;21019;-44
2022/10/07 05:24:28;;;;;;;27.70;13.68;;;;;;;8.43;91.56;100469.89;1748028;81;20995;-42
2022/10/07 05:26:54;;;;;;;32.90;15.20;;;;;;;8.44;91.94;100471.63;1748297;81;21465;-47
2022/10/07 05:29:20;;;;;;;30.77;13.58;;;;;;;8.46;92.02;100462.42;1748032;81;21004;-44
2022/10/07 05:31:48;;;;;;;26.20;13.30;;;;;;;8.50;91.65;100464.50;1748079;82;21465;-43
2022/10/07 05:34:14;;;;;;;28.38;13.80;;;;;;;8.51;91.91;100464.44;1748262;81;20983;-51
2022/10/07 05:36:41;;;;;;;28.20;14.10;;;;;;;8.53;91.99;100464.40;1748030;81;20972;-49
2022/10/07 05:39:09;;;;;;;31.25;14.18;;;;;;;8.56;92.10;100464.32;1748126;81;21507;-48
2022/10/07 05:41:35;;;;;;;27.27;13.28;;;;;;;8.58;91.95;100465.98;1748116;81;20961;-54
2022/10/07 05:44:01;;;;;;;25.45;13.90;;;;;;;8.61;92.10;100467.22;1760802;81;21536;-52
2022/10/07 05:46:26;;;;;;;28.25;13.95;;;;;;;8.66;91.94;100468.41;1761425;81;21022;-45
2022/10/07 05:48:53;;;;;;;29.72;13.72;;;;;;;8.69;92.42;100464.37;1761359;81;21028;-48
2022/10/07 05:51:21;;;;;;;30.82;14.87;;;;;;;8.72;92.34;100461.67;1761069;81;21042;-45
2022/10/07 05:53:47;;;;;;;31.48;13.62;;;;;;;8.77;92.60;100467.64;1760112;81;20999;-50
2022/10/07 05:56:20;;;;;;;33.00;13.18;;;;;;;8.79;92.30;100459.27;1751170;81;21064;-50
2022/10/07 05:58:45;;;;;;;29.00;14.00;;;;;;;8.83;92.41;100463.52;1731059;82;20969;-42
2022/10/07 06:01:15;;;;;;;26.62;12.88;;;;;;;8.84;92.40;100465.25;1731160;82;21012;-44
2022/10/07 06:03:43;;;;;;;27.25;13.03;;;;;;;8.88;92.35;100459.46;1731194;82;21013;-50
2022/10/07 06:06:09;;;;;;;26.37;12.85;;;;;;;8.92;92.27;100458.92;1731205;82;21032;-45
2022/10/07 06:08:35;;;;;;;34.23;13.70;;;;;;;8.96;92.49;100464.47;1731229;83;21013;-46
2022/10/07 06:13:49;;;;;;;31.70;13.23;;;;;;;9.05;92.15;100463.34;1731547;83;20985;-45
2022/10/07 06:16:15;;;;;;;27.73;13.62;;;;;;;9.10;92.51;100464.92;1731382;83;21040;-47
2022/10/07 06:18:41;;;;;;;28.42;12.90;;;;;;;9.16;92.47;100458.63;1731130;83;20973;-45
2022/10/07 06:21:07;;;;;;;24.70;13.53;;;;;;;9.20;92.36;100457.19;1731237;82;21005;-49
2022/10/07 06:23:34;;;;;;;39.25;15.90;;;;;;;9.24;92.12;100457.95;1731276;81;21553;-54
2022/10/07 06:26:06;;;;;;;28.20;14.00;;;;;;;9.30;92.20;100460.83;1731439;83;21001;-49
2022/10/07 06:28:39;;;;;;;25.68;14.03;;;;;;;9.35;92.11;100458.89;1730893;82;21047;-50
2022/10/07 06:31:15;;;;;;;26.10;14.55;;;;;;;9.38;91.96;100464.06;1731186;82;21020;-46
2022/10/07 06:33:42;;;;;;;33.78;14.38;;;;;;;9.44;91.94;100465.62;1731400;82;20984;-47
2022/10/07 06:36:12;;;;;;;31.40;14.15;;;;;;;9.46;91.93;100462.06;1731408;82;21056;-48
2022/10/07 06:38:45;;;;;;;30.15;13.38;;;;;;;9.51;91.75;100455.33;1731173;83;21591;-52
2022/10/07 06:41:11;;;;;;;22.87;13.40;;;;;;;9.55;91.78;100463.08;1730809;82;21032;-46
2022/10/07 06:43:37;;;;;;;26.17;12.00;;;;;;;9.60;91.57;100451.98;1722298;83;21001;-47
2022/10/07 06:46:05;;;;;;;23.80;12.60;;;;;;;9.65;91.58;100457.52;1718326;82;21053;-50
2022/10/07 06:48:34;;;;;;;34.90;13.32;;;;;;;9.70;91.46;100458.23;1718373;82;20978;-49
2022/10/07 06:51:03;;;;;;;31.97;12.75;;;;;;;9.76;91.44;100454.08;1718332;83;21491;-51
2022/10/07 06:53:30;;;;;;;29.30;12.28;;;;;;;9.82;91.06;100455.17;1718310;83;21001;-48
2022/10/07 06:55:58;;;;;;;20.37;11.57;;;;;;;9.88;90.88;100456.77;1718409;82;21001;-52
2022/10/07 06:58:25;;;;;;;45.58;11.48;;;;;;;9.94;90.72;100452.61;1718207;82;21017;-46
2022/10/07 07:00:53;;;;;;;28.15;11.88;;;;;;;10.00;90.45;100461.58;1718500;82;20982;-49
2022/10/07 07:03:20;;;;;;;41.50;13.30;;;;;;;10.07;90.42;100463.55;1717433;83;21001;-47
2022/10/07 07:05:46;;;;;;;29.10;11.33;;;;;;;10.10;90.19;100461.68;1718289;82;21017;-53
2022/10/07 07:08:14;;;;;;;26.37;10.82;;;;;;;10.15;89.64;100466.33;1718298;82;20970;-50
2022/10/07 07:10:43;;;;;;;33.58;10.70;;;;;;;10.23;89.83;100456.85;1718262;83;21021;-54
2022/10/07 07:13:09;;;;;;;20.15;10.15;;;;;;;10.29;89.57;100464.51;1718231;83;21593;-49
2022/10/07 07:15:36;;;;;;;31.37;10.85;;;;;;;10.36;89.62;100465.19;1718217;83;21009;-43
2022/10/07 07:18:04;;;;;;;22.82;9.55;;;;;;;10.38;88.77;100468.63;1718397;83;20981;-50
2022/10/07 07:20:38;;;;;;;21.57;8.70;;;;;;;10.43;88.88;100464.06;1718261;82;21145;-48
2022/10/07 07:23:08;;;;;;;21.93;9.60;;;;;;;10.48;88.16;100466.08;1718307;82;21044;-46
2022/10/07 07:25:37;;;;;;;22.13;8.80;;;;;;;10.54;87.61;100465.84;1718331;83;21001;-50
2022/10/07 07:28:05;;;;;;;25.17;8.83;;;;;;;10.63;87.94;100465.97;1718294;82;21017;-47
2022/10/07 07:30:33;;;;;;;27.45;8.65;;;;;;;10.71;88.01;100465.24;1718444;83;20997;-47
2022/10/07 07:32:59;;;;;;;22.22;9.00;;;;;;;10.81;87.81;100464.90;1718533;83;21037;-51
2022/10/07 07:35:30;;;;;;;25.52;7.50;;;;;;;10.87;87.66;100464.66;1718403;82;21533;-46
2022/10/07 07:37:56;;;;;;;21.17;7.40;;;;;;;10.94;86.87;100458.25;1718433;82;21013;-43
2022/10/07 07:40:22;;;;;;;13.83;6.55;;;;;;;11.00;86.39;100459.31;1718476;82;21546;-47
2022/10/07 07:42:48;;;;;;;17.12;6.83;;;;;;;11.06;85.65;100459.09;1721255;82;21530;-51
2022/10/07 07:45:14;;;;;;;17.02;7.10;;;;;;;11.14;85.63;100457.01;1731386;81;21005;-51
2022/10/07 07:47:40;;;;;;;13.47;7.27;;;;;;;11.21;84.15;100456.32;1731579;82;20996;-47
2022/10/07 07:50:07;;;;;;;17.05;6.78;;;;;;;11.31;85.01;100454.17;1731297;83;21013;-50
2022/10/07 07:52:34;;;;;;;20.47;7.10;;;;;;;11.38;84.91;100454.33;1731477;82;21036;-43
2022/10/07 07:55:01;;;;;;;17.05;6.90;;;;;;;11.46;84.82;100450.06;1731553;82;21244;-55
2022/10/07 07:57:28;;;;;;;17.17;7.37;;;;;;;11.50;84.31;100442.45;1731402;82;21549;-52
2022/10/07 07:59:55;;;;;;;17.37;6.90;;;;;;;11.61;83.08;100448.60;1731447;82;21005;-52
2022/10/07 08:02:22;;;;;;;21.42;7.28;;;;;;;11.68;82.18;100444.80;1731246;82;21000;-48
2022/10/07 08:04:48;;;;;;;15.58;6.53;;;;;;;11.77;81.94;100449.69;1731394;82;21005;-53
2022/10/07 08:07:14;;;;;;;15.00;6.85;;;;;;;11.83;81.74;100442.83;1731345;82;21489;-46
2022/10/07 08:09:40;;;;;;;20.37;6.83;;;;;;;11.90;81.90;100437.72;1731537;83;21001;-46
2022/10/07 08:12:06;;;;;;;20.10;6.28;;;;;;;11.99;81.69;100439.55;1731298;83;20997;-51
2022/10/07 08:14:33;;;;;;;24.18;6.12;;;;;;;12.08;81.92;100436.08;1731526;83;20981;-47
2022/10/07 08:16:59;;;;;;;21.60;6.47;;;;;;;12.19;80.16;100431.66;1731538;83;20977;-49
2022/10/07 08:19:26;;;;;;;15.18;6.47;;;;;;;12.40;81.19;100436.91;1731257;82;21505;-48
2022/10/07 08:21:52;;;;;;;21.77;7.05;;;;;;;12.53;81.01;100437.20;1731461;83;20996;-47
2022/10/07 08:24:18;;;;;;;21.07;6.55;;;;;;;12.64;79.22;100434.94;1731277;82;21040;-48
2022/10/07 08:26:46;;;;;;;16.30;5.90;;;;;;;12.77;80.47;100425.98;1731296;82;21044;-47
2022/10/07 08:29:12;;;;;;;14.07;6.30;;;;;;;12.87;80.69;100424.17;1731350;83;21864;-47
2022/10/07 08:31:38;;;;;;;13.08;5.53;;;;;;;12.99;80.26;100424.08;1731346;82;20973;-46
2022/10/07 08:34:05;;;;;;;11.25;5.67;;;;;;;13.11;80.23;100421.30;1731241;82;20981;-46
2022/10/07 08:36:32;;;;;;;21.82;8.50;;;;;;;13.26;80.06;100419.70;1731454;82;21395;-49
2022/10/07 08:38:59;;;;;;;16.17;6.83;;;;;;;13.38;78.51;100420.47;1731355;82;21012;-50
2022/10/07 08:41:51;;;;;;;11.33;4.90;;;;;;;13.50;79.18;100421.67;1731366;82;21060;-45
2022/10/07 08:44:34;;;;;;;13.18;4.87;;;;;;;13.58;75.90;100426.56;1720708;83;21049;-52
2022/10/07 08:47:21;;;;;;;18.10;5.03;;;;;;;13.73;77.17;100419.17;1726072;82;21009;-47
2022/10/07 08:50:03;;;;;;;10.40;4.85;;;;;;;13.82;76.19;100409.93;1726222;82;21358;-47
2022/10/07 08:52:39;;;;;;;12.25;4.47;;;;;;;13.92;76.19;100409.02;1726082;82;21596;-46
2022/10/07 08:55:47;;;;;;;12.63;4.33;;;;;;;14.00;75.90;100404.17;1726048;83;20981;-46
2022/10/07 08:58:34;;;;;;;12.33;5.10;;;;;;;14.07;75.71;100405.56;1726012;83;21004;-44
2022/10/07 09:01:25;;;;;;;8.45;3.75;;;;;;;14.16;75.53;100401.11;1743281;80;21488;-46
2022/10/07 09:04:14;;;;;;;6.53;3.42;;;;;;;14.25;72.03;100398.94;1751784;82;20951;-47
2022/10/07 09:07:02;;;;;;;7.90;3.80;;;;;;;14.43;73.55;100390.48;1755004;81;21375;-48
2022/10/07 09:09:35;;;;;;;6.25;3.65;;;;;;;14.62;73.49;100389.88;1748804;82;20952;-45
2022/10/07 09:12:07;;;;;;;3.20;2.60;;;;;;;14.82;69.29;100390.11;1754964;82;21153;-43
2022/10/07 09:14:38;;;;;;;4.40;2.30;;;;;;;14.84;69.07;100386.91;1751043;82;20980;-45
2022/10/07 09:17:25;;;;;;;10.35;2.80;;;;;;;14.84;67.82;100384.25;1751120;82;20955;-47
2022/10/07 09:19:58;;;;;;;11.90;2.87;;;;;;;14.84;67.46;100382.93;1732081;82;20968;-50
2022/10/07 09:22:32;;;;;;;7.20;2.22;;;;;;;14.86;69.05;100378.88;1751340;81;21039;-46
2022/10/07 09:25:18;;;;;;;3.20;2.35;;;;;;;14.87;69.77;100380.60;1755579;80;21014;-44
2022/10/07 09:27:44;;;;;;;8.50;2.20;;;;;;;14.82;67.50;100376.88;1754101;82;20952;-47
2022/10/07 09:30:13;;;;;;;9.65;2.08;;;;;;;14.80;65.99;100372.61;1751331;81;20936;-48
2022/10/07 09:32:44;;;;;;;8.45;1.55;;;;;;;14.86;66.71;100370.48;1750657;81;20971;-49
2022/10/07 09:35:17;;;;;;;5.65;1.47;;;;;;;14.83;63.81;100369.33;1754569;82;21472;-46
2022/10/07 09:37:57;;;;;;;5.83;1.62;;;;;;;14.86;65.62;100369.16;1749708;82;21004;-48
2022/10/07 09:43:27;;;;;;;2.95;1.70;;;;;;;14.89;65.96;100359.70;1752119;80;21079;-50
2022/10/07 09:45:55;;;;;;;5.15;2.10;;;;;;;14.85;65.34;100357.33;1742445;82;20967;-52
2022/10/07 09:48:25;;;;;;;4.62;1.65;;;;;;;14.86;66.19;100359.02;1743694;81;20951;-45
2022/10/07 09:50:51;;;;;;;2.85;1.50;;;;;;;14.88;61.58;100354.04;1745620;82;20959;-48
2022/10/07 09:53:22;;;;;;;5.78;1.50;;;;;;;14.93;63.94;100342.69;1740934;81;21454;-49
2022/10/07 09:55:50;;;;;;;6.37;1.82;;;;;;;14.97;63.79;100340.27;1745642;81;21034;-51
2022/10/07 09:58:24;;;;;;;9.45;1.77;;;;;;;15.00;63.94;100337.06;1743579;82;20924;-50
2022/10/07 10:00:53;;;;;;;10.82;2.33;;;;;;;15.03;62.54;100334.25;1742110;82;20983;-46
2022/10/07 10:03:19;;;;;;;11.60;1.77;;;;;;;15.08;61.65;100330.84;1746501;82;20984;-46
2022/10/07 10:05:59;;;;;;;5.20;2.00;;;;;;;15.15;63.49;100332.20;1741926;82;20960;-47
2022/10/07 10:08:32;;;;;;;3.37;1.42;;;;;;;15.17;63.25;100326.33;1747129;81;20980;-48
2022/10/07 10:11:02;;;;;;;8.30;1.70;;;;;;;15.20;63.86;100320.02;1747576;82;20968;-51
2022/10/07 10:13:37;;;;;;;5.42;1.92;;;;;;;15.18;63.88;100317.45;1746575;81;20956;-51
2022/10/07 10:16:08;;;;;;;3.37;1.95;;;;;;;15.19;63.79;100311.67;1747319;82;21413;-48
2022/10/07 10:18:40;;;;;;;6.20;1.80;;;;;;;15.20;63.12;100319.54;1743569;82;21031;-47
2022/10/07 10:21:31;;;;;;;10.78;3.60;;;;;;;15.26;62.59;100311.25;1741071;81;21035;-46
2022/10/07 10:24:02;;;;;;;7.45;2.05;;;;;;;15.25;63.26;100312.19;1728623;82;20994;-52
2022/10/07 10:26:56;;;;;;;7.70;1.98;;;;;;;15.21;62.94;100300.06;1747034;81;20963;-48
2022/10/07 10:29:51;;;;;;;3.30;1.50;;;;;;;15.24;61.88;100302.52;1746758;82;21022;-50
2022/10/07 10:32:28;;;;;;;7.08;1.92;;;;;;;15.28;61.74;100297.44;1743606;82;21560;-45
2022/10/07 10:35:14;;;;;;;5.75;1.80;;;;;;;15.25;61.57;100293.63;1741826;81;20929;-44
2022/10/07 10:37:46;;;;;;;2.95;1.40;;;;;;;15.27;61.99;100287.77;1734854;82;20963;-50
2022/10/07 10:40:37;;;;;;;5.58;2.40;;;;;;;15.28;61.26;100289.48;1742712;82;20976;-48
2022/10/07 10:43:19;;;;;;;5.05;1.82;;;;;;;15.32;61.67;100282.20;1741660;81;20957;-48
2022/10/07 10:46:01;;;;;;;3.37;1.77;;;;;;;15.33;61.14;100277.27;1731584;82;20989;-44
2022/10/07 10:48:42;;;;;;;4.97;2.15;;;;;;;15.35;61.04;100275.38;1752423;82;20935;-47
2022/10/07 10:51:45;;;;;;;6.83;2.00;;;;;;;15.40;60.86;100266.69;1753006;82;20968;-49
2022/10/07 10:54:54;;;;;;;5.72;1.95;;;;;;;15.45;61.80;100259.80;1752759;82;21013;-46
2022/10/07 10:57:56;;;;;;;10.18;2.08;;;;;;;15.48;61.95;100260.92;1753036;82;20951;-48
2022/10/07 11:00:23;;;;;;;3.67;1.72;;;;;;;15.49;60.85;100248.06;1753066;82;21636;-48
2022/10/07 11:03:11;;;;;;;7.30;1.90;;;;;;;15.52;61.61;100239.93;1753196;82;21460;-45
2022/10/07 11:05:41;;;;;;;3.72;1.60;;;;;;;15.51;60.78;100243.52;1753313;81;20999;-48
2022/10/07 11:08:22;;;;;;;9.68;2.10;;;;;;;15.56;61.32;100241.44;1753226;80;20975;-49
2022/10/07 11:10:56;;;;;;;4.92;2.00;;;;;;;15.60;60.55;100235.00;1751407;81;20991;-51
2022/10/07 11:13:37;;;;;;;7.33;1.92;;;;;;;15.64;60.86;100219.27;1752527;81;20991;-50
2022/10/07 11:16:17;;;;;;;3.08;2.00;;;;;;;15.66;60.59;100212.10;1753284;81;20946;-50
2022/10/07 11:18:55;;;;;;;4.35;1.55;;;;;;;15.70;60.79;100214.09;1752128;81;20962;-45
2022/10/07 11:21:34;;;;;;;5.03;2.12;;;;;;;15.71;60.11;100208.67;1736006;81;21018;-45
2022/10/07 11:24:05;;;;;;;7.78;1.70;;;;;;;15.75;61.02;100200.08;1753325;82;20975;-50
2022/10/07 11:26:51;;;;;;;5.87;2.02;;;;;;;15.78;60.78;100199.90;1752884;81;21437;-45
2022/10/07 11:29:39;;;;;;;8.25;1.98;;;;;;;15.79;59.90;100188.81;1753226;82;20940;-46
2022/10/07 11:32:25;;;;;;;4.80;2.37;;;;;;;15.82;60.21;100182.00;1753460;81;20965;-45
2022/10/07 11:35:12;;;;;;;4.00;1.87;;;;;;;15.98;61.25;100165.97;1753451;82;21537;-45
2022/10/07 11:37:59;;;;;;;4.72;2.10;;;;;;;15.98;61.25;100165.97;1729757;82;20960;-46
2022/10/07 11:40:29;;;;;;;4.67;2.40;;;;;;;16.53;61.23;100161.52;1749537;82;20987;-47
2022/10/07 11:43:05;;;;;;;5.62;2.37;;;;;;;17.95;60.82;100161.97;1753255;82;20980;-50
2022/10/07 11:45:39;;;;;;;3.65;2.05;;;;;;;19.79;60.12;100154.31;1752774;82;20988;-46
2022/10/07 11:48:16;;;;;;;11.18;2.75;;;;;;;21.68;57.74;100146.50;1751268;81;21488;-48
2022/10/07 11:50:51;;;;;;;;;;;;;;;23.33;49.64;100148.42;1755217;82;20952;-44
2022/10/07 11:53:22;;;;;;;7.97;2.05;;;;;;;24.60;38.42;100136.99;1751457;81;20114;-40
2022/10/07 11:56:05;;;;;;;3.25;1.82;;;;;;;25.90;48.15;100129.85;1753260;82;20948;-46
2022/10/07 11:58:36;;;;;;;2.92;1.92;;;;;;;26.74;41.00;100136.60;1752047;81;20967;-47
2022/10/07 12:01:27;;;;;;;5.20;1.90;;;;;;;26.99;42.37;100130.68;1753383;82;20975;-52
2022/10/07 12:03:59;;;;;;;4.92;1.75;;;;;;;27.63;42.56;100121.75;1704934;84;21418;-45
2022/10/07 12:06:25;;;;;;;5.30;1.70;;;;;;;28.78;40.11;100116.48;1702185;84;21026;-49
2022/10/07 12:08:52;;;;;;;4.53;1.80;;;;;;;29.73;37.15;100112.23;1696864;84;21523;-44
2022/10/07 12:11:23;;;;;;;3.08;1.85;;;;;;;30.52;34.98;100111.44;1708493;84;21044;-49
2022/10/07 12:13:52;;;;;;;5.35;2.20;;;;;;;31.08;32.54;100116.09;1702112;84;20966;-49
2022/10/07 12:16:32;;;;;;;3.87;1.70;;;;;;;31.23;31.16;100109.17;1701333;84;21045;-48
2022/10/07 12:19:10;;;;;;;2.95;1.98;;;;;;;31.79;30.25;100104.67;1707078;84;21002;-52
2022/10/07 12:22:10;;;;;;;4.40;1.82;;;;;;;32.38;29.37;100096.34;1674011;85;21585;-48
2022/10/07 12:24:37;;;;;;;4.35;1.92;;;;;;;32.92;28.16;100097.20;1703780;84;20967;-46
2022/10/07 12:27:18;;;;;;;3.67;1.72;;;;;;;32.71;23.43;100092.31;1695158;84;21564;-47
2022/10/07 12:30:01;;;;;;;4.58;1.45;;;;;;;33.12;26.30;100081.68;1685246;85;21019;-47
2022/10/07 12:32:51;;;;;;;3.30;1.37;;;;;;;33.31;26.12;100079.11;1694032;84;21016;-46
2022/10/07 12:35:35;;;;;;;5.87;3.58;;;;;;;33.77;23.14;100070.77;1720472;82;21010;-45
2022/10/07 12:38:26;;;;;;;2.60;1.50;;;;;;;33.50;23.00;100065.11;1753068;82;21723;-47
2022/10/07 12:41:00;;;;;;;8.05;1.62;;;;;;;34.25;23.90;100059.05;1752188;81;21550;-48
2022/10/07 12:43:38;;;;;;;6.05;1.60;;;;;;;34.30;23.57;100057.33;1725866;82;21030;-48
2022/10/07 12:46:08;;;;;;;4.33;1.62;;;;;;;34.56;22.88;100058.16;1708988;82;21022;-48
2022/10/07 12:48:39;;;;;;;2.87;1.82;;;;;;;34.92;23.06;100056.59;1752343;82;21345;-47
2022/10/07 12:51:17;;;;;;;4.67;1.37;;;;;;;34.50;21.39;100053.59;1752715;82;21438;-49
2022/10/07 12:53:42;;;;;;;3.05;1.85;;;;;;;34.70;22.95;100050.17;1729707;82;20987;-49
2022/10/07 12:56:11;;;;;;;2.55;1.52;;;;;;;34.60;22.32;100045.72;1752206;82;20955;-49
2022/10/07 13:02:40;;;;;;;5.08;2.10;;;;;;;34.43;20.66;100035.36;1753296;82;21540;-48
2022/10/07 13:05:52;;;;;;;3.42;1.40;;;;;;;34.45;22.04;100023.39;1740974;82;20970;-49
2022/10/07 13:08:41;;;;;;;3.30;1.90;;;;;;;34.69;22.51;100018.48;1738347;82;21398;-48
2022/10/07 13:11:46;;;;;;;4.45;1.77;;;;;;;34.72;22.85;100020.73;1751662;82;20976;-49
2022/10/07 13:14:46;;;;;;;3.95;1.60;;;;;;;34.68;22.42;100021.40;1752311;82;21086;-47
2022/10/07 13:17:51;;;;;;;3.72;1.90;;;;;;;34.70;22.01;100015.20;1753104;81;20956;-49
2022/10/07 13:20:36;;;;;;;4.47;1.82;;;;;;;34.51;22.42;100010.20;1753266;82;21374;-46
2022/10/07 13:23:14;;;;;;;;;;;;;;;34.59;22.66;100009.92;1754339;82;21023;-45
2022/10/07 13:25:54;;;;;;;4.35;1.52;;;;;;;34.18;20.94;100007.23;1729744;82;20419;-43
2022/10/07 13:28:24;;;;;;;2.83;1.70;;;;;;;34.30;22.66;100001.36;1753140;82;20948;-46
2022/10/07 13:30:52;;;;;;;5.55;3.00;;;;;;;34.23;22.41;99996.48;1753194;81;20974;-43
2022/10/07 13:33:30;;;;;;;3.35;2.17;;;;;;;34.23;22.61;99995.95;1753079;81;21607;-45
2022/10/07 13:36:16;;;;;;;9.38;2.00;;;;;;;34.46;22.38;99985.48;1753253;80;20976;-45
2022/10/07 13:38:45;;;;;;;11.80;2.20;;;;;;;34.36;22.87;99985.44;1719959;82;21042;-44
2022/10/07 13:41:22;;;;;;;3.95;1.75;;;;;;;34.45;22.73;99983.80;1747562;82;21437;-43
2022/10/07 13:43:54;;;;;;;3.95;1.92;;;;;;;34.45;22.45;99972.88;1752836;81;20963;-47
2022/10/07 13:46:22;;;;;;;3.95;1.80;;;;;;;33.89;22.34;99967.22;1742885;82;21085;-44
2022/10/07 13:48:49;;;;;;;5.05;1.85;;;;;;;34.00;22.32;99966.52;1741502;81;21429;-46
2022/10/07 13:51:32;;;;;;;10.68;2.00;;;;;;;34.34;22.21;99964.35;1746076;82;20956;-49
2022/10/07 13:54:00;;;;;;;2.72;1.85;;;;;;;34.00;22.82;99954.25;1740226;82;20936;-46
2022/10/07 13:56:35;;;;;;;3.08;2.15;;;;;;;33.95;22.64;99951.88;1746884;82;20996;-48
2022/10/07 13:59:02;;;;;;;5.83;1.82;;;;;;;33.57;23.18;99950.85;1746662;81;21552;-47
2022/10/07 14:01:31;;;;;;;6.50;2.05;;;;;;;33.57;23.67;99945.39;1746573;82;20971;-48
2022/10/07 14:04:11;;;;;;;4.40;1.80;;;;;;;33.57;23.33;99946.76;1742435;82;20951;-46
2022/10/07 14:06:57;;;;;;;4.25;2.10;;;;;;;33.24;23.69;99940.98;1742708;82;20968;-44
2022/10/07 14:09:37;;;;;;;4.50;2.02;;;;;;;33.13;23.71;99938.95;1747012;82;21430;-46
2022/10/07 14:12:19;;;;;;;8.05;2.37;;;;;;;32.77;23.99;99929.41;1742795;82;20980;-45
2022/10/07 14:14:50;;;;;;;4.28;2.20;;;;;;;31.66;24.77;99921.95;1743962;82;20995;-51
2022/10/07 14:17:25;;;;;;;7.47;2.25;;;;;;;30.08;26.00;99921.24;1747429;82;20956;-47
2022/10/07 14:19:57;;;;;;;2.83;1.40;;;;;;;28.72;27.63;99915.58;1745654;82;20976;-48
2022/10/07 14:22:35;;;;;;;6.03;3.05;;;;;;;27.67;28.78;99901.52;1746732;82;20983;-45
2022/10/07 14:25:04;;;;;;;6.92;2.02;;;;;;;26.57;30.77;99902.42;1740887;82;21004;-47
2022/10/07 14:27:47;;;;;;;6.92;2.27;;;;;;;25.89;31.71;99903.20;1747206;82;20972;-43
2022/10/07 14:36:23;;;;;;;9.85;2.27;;;;;;;24.05;35.19;99877.34;1743383;82;20948;-43
2022/10/07 14:38:50;;;;;;;10.55;2.72;;;;;;;23.38;37.06;99876.42;1744147;82;21472;-43
2022/10/07 14:41:20;;;;;;;6.75;2.30;;;;;;;23.00;37.38;99874.83;1747468;82;20960;-48
2022/10/07 14:43:48;;;;;;;4.28;2.20;;;;;;;22.67;38.10;99873.62;1726494;81;21147;-43
2022/10/07 14:46:20;;;;;;;8.93;2.22;;;;;;;22.35;39.02;99864.98;1745657;82;21556;-44
2022/10/07 14:48:47;;;;;;;11.90;2.55;;;;;;;22.14;39.64;99866.52;1747065;82;21003;-45
2022/10/07 14:51:20;;;;;;;4.87;2.72;;;;;;;21.57;41.65;99854.91;1740333;82;20967;-46